Terminal Aerodrome Forecast
Issued by NWS

Home | Current Version | Previous Version | Text Only | Print | Product List | Glossary On
Versions: 1 2 3 4 5 6 7 8 9 10 11 12 13 14 15 16 17 18 19 20 21 22 23
000
FTUS43 KBIS 060544
TAFDIK
TAF
KDIK 060544Z 0606/0706 34007KT 5SM FU SCT050
      TEMPO 0606/0610 3SM FU OVC040
     FM061000 33006KT 4SM FU SCT035 BKN150
      TEMPO 0610/0614 2SM FU BKN035
     FM061600 34010KT 6SM FU BKN040 BKN100
     FM062200 36008KT 6SM FU SCT050
     FM070300 09005KT 4SM FU SKC=

USA.gov is the U.S. government's official web portal to all federal, state and local government web resources and services.